sensor_id;sensor_type;location;lat;lon;timestamp;P1;durP1;ratioP1;P2;durP2;ratioP2
77085;SDS011;66014;53.134;18.006;2023-04-06T00:02:16;22.80;;;9.10;;
77085;SDS011;66014;53.134;18.006;2023-04-06T00:04:42;20.90;;;9.10;;
77085;SDS011;66014;53.134;18.006;2023-04-06T00:07:08;25.40;;;9.80;;
77085;SDS011;66014;53.134;18.006;2023-04-06T00:09:34;22.30;;;10.20;;
77085;SDS011;66014;53.134;18.006;2023-04-06T00:12:00;25.50;;;9.90;;
77085;SDS011;66014;53.134;18.006;2023-04-06T00:14:26;24.80;;;10.10;;
77085;SDS011;66014;53.134;18.006;2023-04-06T00:16:52;24.60;;;10.60;;
77085;SDS011;66014;53.134;18.006;2023-04-06T00:19:17;30.40;;;10.10;;
77085;SDS011;66014;53.134;18.006;2023-04-06T00:21:43;27.90;;;10.40;;
77085;SDS011;66014;53.134;18.006;2023-04-06T00:24:09;27.00;;;11.90;;
77085;SDS011;66014;53.134;18.006;2023-04-06T00:26:35;26.30;;;11.40;;
77085;SDS011;66014;53.134;18.006;2023-04-06T00:29:01;27.40;;;10.90;;
77085;SDS011;66014;53.134;18.006;2023-04-06T00:31:27;29.00;;;11.60;;
77085;SDS011;66014;53.134;18.006;2023-04-06T00:33:53;27.70;;;12.70;;
77085;SDS011;66014;53.134;18.006;2023-04-06T00:36:18;28.00;;;11.40;;
77085;SDS011;66014;53.134;18.006;2023-04-06T00:38:44;30.30;;;14.10;;
77085;SDS011;66014;53.134;18.006;2023-04-06T00:41:10;28.20;;;12.30;;
77085;SDS011;66014;53.134;18.006;2023-04-06T00:43:37;32.40;;;13.30;;
77085;SDS011;66014;53.134;18.006;2023-04-06T00:46:03;27.60;;;11.00;;
77085;SDS011;66014;53.134;18.006;2023-04-06T00:48:28;26.40;;;11.10;;
77085;SDS011;66014;53.134;18.006;2023-04-06T00:50:57;27.00;;;11.90;;
77085;SDS011;66014;53.134;18.006;2023-04-06T00:53:23;30.70;;;12.60;;
77085;SDS011;66014;53.134;18.006;2023-04-06T00:55:49;38.20;;;13.10;;
77085;SDS011;66014;53.134;18.006;2023-04-06T00:58:15;32.90;;;12.50;;
77085;SDS011;66014;53.134;18.006;2023-04-06T01:00:40;34.70;;;12.20;;
77085;SDS011;66014;53.134;18.006;2023-04-06T01:03:07;32.50;;;12.40;;
77085;SDS011;66014;53.134;18.006;2023-04-06T01:05:36;31.80;;;12.80;;
77085;SDS011;66014;53.134;18.006;2023-04-06T01:08:06;31.50;;;12.10;;
77085;SDS011;66014;53.134;18.006;2023-04-06T01:10:33;23.00;;;11.00;;
77085;SDS011;66014;53.134;18.006;2023-04-06T01:12:59;34.40;;;13.50;;
77085;SDS011;66014;53.134;18.006;2023-04-06T01:15:25;33.10;;;13.20;;
77085;SDS011;66014;53.134;18.006;2023-04-06T01:17:53;24.80;;;10.30;;
77085;SDS011;66014;53.134;18.006;2023-04-06T01:20:19;21.80;;;10.10;;
77085;SDS011;66014;53.134;18.006;2023-04-06T01:22:45;25.80;;;10.00;;
77085;SDS011;66014;53.134;18.006;2023-04-06T01:25:11;21.10;;;9.70;;
77085;SDS011;66014;53.134;18.006;2023-04-06T01:27:37;28.10;;;10.50;;
77085;SDS011;66014;53.134;18.006;2023-04-06T01:30:03;26.20;;;11.20;;
77085;SDS011;66014;53.134;18.006;2023-04-06T01:32:29;21.00;;;8.80;;
77085;SDS011;66014;53.134;18.006;2023-04-06T01:34:55;22.10;;;8.90;;
77085;SDS011;66014;53.134;18.006;2023-04-06T01:37:21;23.20;;;8.10;;
77085;SDS011;66014;53.134;18.006;2023-04-06T01:39:47;17.40;;;7.70;;
77085;SDS011;66014;53.134;18.006;2023-04-06T01:42:13;16.90;;;7.90;;
77085;SDS011;66014;53.134;18.006;2023-04-06T01:44:40;19.30;;;8.00;;
77085;SDS011;66014;53.134;18.006;2023-04-06T01:47:06;17.80;;;8.30;;
77085;SDS011;66014;53.134;18.006;2023-04-06T01:49:32;16.00;;;7.40;;
77085;SDS011;66014;53.134;18.006;2023-04-06T01:51:57;15.60;;;6.60;;
77085;SDS011;66014;53.134;18.006;2023-04-06T01:54:23;15.80;;;7.30;;
77085;SDS011;66014;53.134;18.006;2023-04-06T01:56:49;21.50;;;8.10;;
77085;SDS011;66014;53.134;18.006;2023-04-06T01:59:19;20.40;;;7.80;;
77085;SDS011;66014;53.134;18.006;2023-04-06T02:01:45;17.90;;;7.30;;
77085;SDS011;66014;53.134;18.006;2023-04-06T02:04:13;23.30;;;10.10;;
77085;SDS011;66014;53.134;18.006;2023-04-06T02:06:40;19.90;;;7.30;;
77085;SDS011;66014;53.134;18.006;2023-04-06T02:09:06;20.10;;;7.80;;
77085;SDS011;66014;53.134;18.006;2023-04-06T02:11:32;14.50;;;7.30;;
77085;SDS011;66014;53.134;18.006;2023-04-06T02:13:57;18.30;;;8.10;;
77085;SDS011;66014;53.134;18.006;2023-04-06T02:16:25;17.40;;;7.40;;
77085;SDS011;66014;53.134;18.006;2023-04-06T02:18:51;15.00;;;7.50;;
77085;SDS011;66014;53.134;18.006;2023-04-06T02:21:17;22.50;;;7.80;;
77085;SDS011;66014;53.134;18.006;2023-04-06T02:23:46;20.30;;;9.80;;
77085;SDS011;66014;53.134;18.006;2023-04-06T02:26:13;18.10;;;8.40;;
77085;SDS011;66014;53.134;18.006;2023-04-06T02:28:39;18.50;;;8.40;;
77085;SDS011;66014;53.134;18.006;2023-04-06T02:31:05;18.50;;;7.80;;
77085;SDS011;66014;53.134;18.006;2023-04-06T02:33:31;13.90;;;6.90;;
77085;SDS011;66014;53.134;18.006;2023-04-06T02:35:56;16.50;;;8.10;;
77085;SDS011;66014;53.134;18.006;2023-04-06T02:38:22;20.70;;;7.20;;
77085;SDS011;66014;53.134;18.006;2023-04-06T02:40:48;20.60;;;7.20;;
77085;SDS011;66014;53.134;18.006;2023-04-06T02:43:14;18.40;;;8.30;;
77085;SDS011;66014;53.134;18.006;2023-04-06T02:45:40;17.50;;;8.70;;
77085;SDS011;66014;53.134;18.006;2023-04-06T02:48:06;17.50;;;7.30;;
77085;SDS011;66014;53.134;18.006;2023-04-06T02:50:32;17.30;;;8.00;;
77085;SDS011;66014;53.134;18.006;2023-04-06T02:52:58;20.50;;;9.20;;
77085;SDS011;66014;53.134;18.006;2023-04-06T02:55:24;20.30;;;8.70;;
77085;SDS011;66014;53.134;18.006;2023-04-06T02:57:49;22.00;;;9.90;;
77085;SDS011;66014;53.134;18.006;2023-04-06T03:00:15;19.50;;;9.70;;
77085;SDS011;66014;53.134;18.006;2023-04-06T03:02:41;21.30;;;10.30;;
77085;SDS011;66014;53.134;18.006;2023-04-06T03:05:07;22.60;;;9.90;;
77085;SDS011;66014;53.134;18.006;2023-04-06T03:07:33;25.20;;;10.80;;
77085;SDS011;66014;53.134;18.006;2023-04-06T03:09:59;19.80;;;9.50;;
77085;SDS011;66014;53.134;18.006;2023-04-06T03:12:25;21.10;;;9.70;;
77085;SDS011;66014;53.134;18.006;2023-04-06T03:14:50;26.70;;;10.40;;
77085;SDS011;66014;53.134;18.006;2023-04-06T03:17:17;20.50;;;8.80;;
77085;SDS011;66014;53.134;18.006;2023-04-06T03:19:43;19.50;;;9.40;;
77085;SDS011;66014;53.134;18.006;2023-04-06T03:22:09;19.80;;;8.40;;
77085;SDS011;66014;53.134;18.006;2023-04-06T03:24:36;17.20;;;8.90;;
77085;SDS011;66014;53.134;18.006;2023-04-06T03:27:01;20.40;;;8.80;;
77085;SDS011;66014;53.134;18.006;2023-04-06T03:29:27;19.90;;;9.50;;
77085;SDS011;66014;53.134;18.006;2023-04-06T03:31:53;23.90;;;9.20;;
77085;SDS011;66014;53.134;18.006;2023-04-06T03:34:19;19.90;;;8.60;;
77085;SDS011;66014;53.134;18.006;2023-04-06T03:36:45;19.20;;;8.80;;
77085;SDS011;66014;53.134;18.006;2023-04-06T03:39:11;74.70;;;28.60;;
77085;SDS011;66014;53.134;18.006;2023-04-06T03:41:37;44.00;;;17.40;;
77085;SDS011;66014;53.134;18.006;2023-04-06T03:44:04;26.30;;;14.00;;
77085;SDS011;66014;53.134;18.006;2023-04-06T03:46:31;26.50;;;12.00;;
77085;SDS011;66014;53.134;18.006;2023-04-06T03:48:56;30.20;;;13.70;;
77085;SDS011;66014;53.134;18.006;2023-04-06T03:51:22;27.10;;;12.20;;
77085;SDS011;66014;53.134;18.006;2023-04-06T03:53:49;25.70;;;12.00;;
77085;SDS011;66014;53.134;18.006;2023-04-06T03:56:15;29.10;;;12.00;;
77085;SDS011;66014;53.134;18.006;2023-04-06T03:58:40;24.70;;;10.80;;
77085;SDS011;66014;53.134;18.006;2023-04-06T04:01:06;22.80;;;9.80;;
77085;SDS011;66014;53.134;18.006;2023-04-06T04:03:32;23.10;;;11.10;;
77085;SDS011;66014;53.134;18.006;2023-04-06T04:05:58;28.20;;;15.70;;
77085;SDS011;66014;53.134;18.006;2023-04-06T04:08:24;30.40;;;14.70;;
77085;SDS011;66014;53.134;18.006;2023-04-06T04:10:53;34.20;;;13.10;;
77085;SDS011;66014;53.134;18.006;2023-04-06T04:13:19;30.70;;;13.40;;
77085;SDS011;66014;53.134;18.006;2023-04-06T04:15:45;27.00;;;12.10;;
77085;SDS011;66014;53.134;18.006;2023-04-06T04:18:15;30.70;;;14.20;;
77085;SDS011;66014;53.134;18.006;2023-04-06T04:20:42;32.70;;;14.50;;
77085;SDS011;66014;53.134;18.006;2023-04-06T04:23:07;35.60;;;16.10;;
77085;SDS011;66014;53.134;18.006;2023-04-06T04:25:33;46.40;;;18.60;;
77085;SDS011;66014;53.134;18.006;2023-04-06T04:27:59;55.20;;;23.80;;
77085;SDS011;66014;53.134;18.006;2023-04-06T04:30:25;66.10;;;31.50;;
77085;SDS011;66014;53.134;18.006;2023-04-06T04:32:53;90.30;;;35.10;;
77085;SDS011;66014;53.134;18.006;2023-04-06T04:35:22;136.10;;;52.90;;
77085;SDS011;66014;53.134;18.006;2023-04-06T04:37:48;88.70;;;38.60;;
77085;SDS011;66014;53.134;18.006;2023-04-06T04:40:14;70.80;;;31.30;;
77085;SDS011;66014;53.134;18.006;2023-04-06T04:42:42;46.40;;;19.10;;
77085;SDS011;66014;53.134;18.006;2023-04-06T04:45:08;33.90;;;16.20;;
77085;SDS011;66014;53.134;18.006;2023-04-06T04:47:34;29.90;;;13.90;;
77085;SDS011;66014;53.134;18.006;2023-04-06T04:50:00;25.80;;;11.20;;
77085;SDS011;66014;53.134;18.006;2023-04-06T04:52:25;33.60;;;13.10;;
77085;SDS011;66014;53.134;18.006;2023-04-06T04:54:51;25.40;;;13.10;;
77085;SDS011;66014;53.134;18.006;2023-04-06T04:59:48;31.90;;;14.90;;
77085;SDS011;66014;53.134;18.006;2023-04-06T05:02:16;31.70;;;13.30;;
77085;SDS011;66014;53.134;18.006;2023-04-06T05:04:43;34.20;;;14.60;;
77085;SDS011;66014;53.134;18.006;2023-04-06T05:07:09;60.80;;;22.10;;
77085;SDS011;66014;53.134;18.006;2023-04-06T05:09:35;56.40;;;20.10;;
77085;SDS011;66014;53.134;18.006;2023-04-06T05:12:01;40.00;;;18.90;;
77085;SDS011;66014;53.134;18.006;2023-04-06T05:14:27;40.60;;;19.00;;
77085;SDS011;66014;53.134;18.006;2023-04-06T05:16:53;33.10;;;16.60;;
77085;SDS011;66014;53.134;18.006;2023-04-06T05:19:19;36.80;;;19.00;;
77085;SDS011;66014;53.134;18.006;2023-04-06T05:21:45;45.00;;;20.90;;
77085;SDS011;66014;53.134;18.006;2023-04-06T05:24:11;37.40;;;17.10;;
77085;SDS011;66014;53.134;18.006;2023-04-06T05:26:37;41.30;;;17.70;;
77085;SDS011;66014;53.134;18.006;2023-04-06T05:29:03;36.30;;;16.50;;
77085;SDS011;66014;53.134;18.006;2023-04-06T05:31:29;37.60;;;18.40;;
77085;SDS011;66014;53.134;18.006;2023-04-06T05:33:56;42.90;;;16.80;;
77085;SDS011;66014;53.134;18.006;2023-04-06T06:31:24;40.70;;;15.40;;
77085;SDS011;66014;53.134;18.006;2023-04-06T06:37:35;36.30;;;15.20;;
77085;SDS011;66014;53.134;18.006;2023-04-06T06:40:01;39.30;;;15.80;;
77085;SDS011;66014;53.134;18.006;2023-04-06T06:42:28;45.80;;;17.80;;
77085;SDS011;66014;53.134;18.006;2023-04-06T06:44:54;56.00;;;22.00;;
77085;SDS011;66014;53.134;18.006;2023-04-06T06:47:20;42.10;;;18.10;;
77085;SDS011;66014;53.134;18.006;2023-04-06T06:49:46;45.20;;;21.00;;
77085;SDS011;66014;53.134;18.006;2023-04-06T06:52:13;39.10;;;18.90;;
77085;SDS011;66014;53.134;18.006;2023-04-06T06:54:38;45.00;;;18.90;;
77085;SDS011;66014;53.134;18.006;2023-04-06T06:57:04;32.10;;;15.20;;
77085;SDS011;66014;53.134;18.006;2023-04-06T06:59:31;30.00;;;14.10;;
77085;SDS011;66014;53.134;18.006;2023-04-06T07:01:57;34.70;;;15.00;;
77085;SDS011;66014;53.134;18.006;2023-04-06T07:04:23;36.10;;;17.50;;
77085;SDS011;66014;53.134;18.006;2023-04-06T07:06:48;48.10;;;22.30;;
77085;SDS011;66014;53.134;18.006;2023-04-06T07:09:14;46.50;;;21.70;;
77085;SDS011;66014;53.134;18.006;2023-04-06T07:11:40;44.70;;;22.00;;
77085;SDS011;66014;53.134;18.006;2023-04-06T07:14:06;40.70;;;20.90;;
77085;SDS011;66014;53.134;18.006;2023-04-06T07:16:32;35.10;;;16.20;;
77085;SDS011;66014;53.134;18.006;2023-04-06T07:18:58;37.00;;;16.90;;
77085;SDS011;66014;53.134;18.006;2023-04-06T07:21:24;41.30;;;17.20;;
77085;SDS011;66014;53.134;18.006;2023-04-06T07:23:50;32.70;;;17.40;;
77085;SDS011;66014;53.134;18.006;2023-04-06T07:26:18;29.60;;;15.60;;
77085;SDS011;66014;53.134;18.006;2023-04-06T07:28:44;35.70;;;16.50;;
77085;SDS011;66014;53.134;18.006;2023-04-06T07:31:10;46.40;;;19.80;;
77085;SDS011;66014;53.134;18.006;2023-04-06T07:33:36;41.70;;;16.60;;
77085;SDS011;66014;53.134;18.006;2023-04-06T07:36:02;36.10;;;15.00;;
77085;SDS011;66014;53.134;18.006;2023-04-06T07:38:28;32.50;;;14.10;;
77085;SDS011;66014;53.134;18.006;2023-04-06T07:41:10;33.00;;;13.60;;
77085;SDS011;66014;53.134;18.006;2023-04-06T07:43:36;26.20;;;12.20;;
77085;SDS011;66014;53.134;18.006;2023-04-06T07:46:01;26.70;;;12.90;;
77085;SDS011;66014;53.134;18.006;2023-04-06T09:03:41;10.60;;;4.60;;
77085;SDS011;66014;53.134;18.006;2023-04-06T09:06:09;7.90;;;4.90;;
77085;SDS011;66014;53.134;18.006;2023-04-06T09:08:37;9.70;;;5.70;;
77085;SDS011;66014;53.134;18.006;2023-04-06T09:11:06;10.10;;;6.00;;
77085;SDS011;66014;53.134;18.006;2023-04-06T09:13:50;12.20;;;7.00;;
77085;SDS011;66014;53.134;18.006;2023-04-06T09:16:17;11.10;;;6.30;;
77085;SDS011;66014;53.134;18.006;2023-04-06T09:18:44;8.40;;;5.00;;
77085;SDS011;66014;53.134;18.006;2023-04-06T09:21:10;15.60;;;6.70;;
77085;SDS011;66014;53.134;18.006;2023-04-06T09:23:37;20.80;;;8.60;;
77085;SDS011;66014;53.134;18.006;2023-04-06T09:28:45;9.70;;;5.10;;
77085;SDS011;66014;53.134;18.006;2023-04-06T09:31:16;11.20;;;5.30;;
77085;SDS011;66014;53.134;18.006;2023-04-06T09:33:47;10.60;;;5.90;;
77085;SDS011;66014;53.134;18.006;2023-04-06T09:36:14;11.00;;;6.40;;
77085;SDS011;66014;53.134;18.006;2023-04-06T09:46:36;10.70;;;6.10;;
77085;SDS011;66014;53.134;18.006;2023-04-06T09:49:05;10.30;;;6.00;;
77085;SDS011;66014;53.134;18.006;2023-04-06T09:54:05;11.60;;;6.10;;
77085;SDS011;66014;53.134;18.006;2023-04-06T09:59:44;18.90;;;6.20;;
77085;SDS011;66014;53.134;18.006;2023-04-06T10:12:48;13.00;;;6.80;;
77085;SDS011;66014;53.134;18.006;2023-04-06T12:01:02;8.60;;;4.00;;
77085;SDS011;66014;53.134;18.006;2023-04-06T12:50:53;11.30;;;4.50;;
77085;SDS011;66014;53.134;18.006;2023-04-06T12:55:53;7.80;;;4.10;;
77085;SDS011;66014;53.134;18.006;2023-04-06T12:58:20;5.70;;;3.60;;
77085;SDS011;66014;53.134;18.006;2023-04-06T13:01:08;10.80;;;4.70;;
77085;SDS011;66014;53.134;18.006;2023-04-06T13:03:35;13.20;;;5.30;;
77085;SDS011;66014;53.134;18.006;2023-04-06T13:06:01;10.90;;;4.50;;
77085;SDS011;66014;53.134;18.006;2023-04-06T13:08:28;8.80;;;6.30;;
77085;SDS011;66014;53.134;18.006;2023-04-06T13:10:54;10.00;;;3.80;;
77085;SDS011;66014;53.134;18.006;2023-04-06T13:13:24;8.00;;;4.70;;
77085;SDS011;66014;53.134;18.006;2023-04-06T13:15:54;9.30;;;4.10;;
77085;SDS011;66014;53.134;18.006;2023-04-06T13:18:25;6.50;;;3.80;;
77085;SDS011;66014;53.134;18.006;2023-04-06T13:20:51;8.80;;;4.50;;
77085;SDS011;66014;53.134;18.006;2023-04-06T13:23:20;6.20;;;4.10;;
77085;SDS011;66014;53.134;18.006;2023-04-06T13:25:47;8.50;;;4.20;;
77085;SDS011;66014;53.134;18.006;2023-04-06T13:28:12;15.50;;;4.60;;
77085;SDS011;66014;53.134;18.006;2023-04-06T13:30:39;7.70;;;4.70;;
77085;SDS011;66014;53.134;18.006;2023-04-06T13:33:05;11.00;;;5.30;;
77085;SDS011;66014;53.134;18.006;2023-04-06T13:35:32;10.10;;;6.30;;
77085;SDS011;66014;53.134;18.006;2023-04-06T13:37:58;12.30;;;7.00;;
77085;SDS011;66014;53.134;18.006;2023-04-06T13:40:24;11.20;;;6.60;;
77085;SDS011;66014;53.134;18.006;2023-04-06T13:42:50;7.70;;;4.60;;
77085;SDS011;66014;53.134;18.006;2023-04-06T13:45:17;7.00;;;4.00;;
77085;SDS011;66014;53.134;18.006;2023-04-06T13:47:42;9.20;;;5.70;;
77085;SDS011;66014;53.134;18.006;2023-04-06T13:50:08;8.90;;;4.10;;
77085;SDS011;66014;53.134;18.006;2023-04-06T13:52:35;8.50;;;4.00;;
77085;SDS011;66014;53.134;18.006;2023-04-06T13:55:01;7.10;;;4.90;;
77085;SDS011;66014;53.134;18.006;2023-04-06T14:38:57;8.90;;;5.70;;
77085;SDS011;66014;53.134;18.006;2023-04-06T14:59:47;9.20;;;5.20;;
77085;SDS011;66014;53.134;18.006;2023-04-06T15:02:13;12.80;;;6.90;;
77085;SDS011;66014;53.134;18.006;2023-04-06T15:04:39;12.70;;;5.30;;
77085;SDS011;66014;53.134;18.006;2023-04-06T15:07:05;12.30;;;5.10;;
77085;SDS011;66014;53.134;18.006;2023-04-06T15:09:31;12.40;;;6.70;;
77085;SDS011;66014;53.134;18.006;2023-04-06T15:11:57;9.90;;;6.00;;
77085;SDS011;66014;53.134;18.006;2023-04-06T15:14:23;10.20;;;5.50;;
77085;SDS011;66014;53.134;18.006;2023-04-06T15:16:48;10.50;;;6.00;;
77085;SDS011;66014;53.134;18.006;2023-04-06T15:19:14;11.10;;;5.90;;
77085;SDS011;66014;53.134;18.006;2023-04-06T15:21:40;9.00;;;5.00;;
77085;SDS011;66014;53.134;18.006;2023-04-06T15:24:06;11.40;;;6.00;;
77085;SDS011;66014;53.134;18.006;2023-04-06T15:26:35;10.10;;;5.60;;
77085;SDS011;66014;53.134;18.006;2023-04-06T15:29:02;12.00;;;6.40;;
77085;SDS011;66014;53.134;18.006;2023-04-06T15:31:28;13.00;;;5.70;;
77085;SDS011;66014;53.134;18.006;2023-04-06T15:33:55;10.70;;;5.20;;
77085;SDS011;66014;53.134;18.006;2023-04-06T15:36:25;8.10;;;5.00;;
77085;SDS011;66014;53.134;18.006;2023-04-06T15:38:54;12.30;;;5.70;;
77085;SDS011;66014;53.134;18.006;2023-04-06T15:41:21;10.40;;;5.10;;
77085;SDS011;66014;53.134;18.006;2023-04-06T15:43:47;13.40;;;6.30;;
77085;SDS011;66014;53.134;18.006;2023-04-06T15:46:16;8.00;;;4.50;;
77085;SDS011;66014;53.134;18.006;2023-04-06T15:48:43;10.20;;;4.60;;
77085;SDS011;66014;53.134;18.006;2023-04-06T15:51:09;8.70;;;4.90;;
77085;SDS011;66014;53.134;18.006;2023-04-06T15:53:37;7.50;;;4.60;;
77085;SDS011;66014;53.134;18.006;2023-04-06T15:56:04;11.50;;;5.80;;
77085;SDS011;66014;53.134;18.006;2023-04-06T15:58:32;11.70;;;5.60;;
77085;SDS011;66014;53.134;18.006;2023-04-06T16:00:58;12.00;;;5.70;;
77085;SDS011;66014;53.134;18.006;2023-04-06T16:03:24;14.30;;;5.90;;
77085;SDS011;66014;53.134;18.006;2023-04-06T16:05:51;7.90;;;4.50;;
77085;SDS011;66014;53.134;18.006;2023-04-06T16:08:20;10.20;;;4.50;;
77085;SDS011;66014;53.134;18.006;2023-04-06T16:10:46;7.70;;;4.40;;
77085;SDS011;66014;53.134;18.006;2023-04-06T16:13:11;7.10;;;4.00;;
77085;SDS011;66014;53.134;18.006;2023-04-06T16:15:37;10.50;;;4.70;;
77085;SDS011;66014;53.134;18.006;2023-04-06T16:18:03;9.10;;;5.30;;
77085;SDS011;66014;53.134;18.006;2023-04-06T16:20:29;11.60;;;5.90;;
77085;SDS011;66014;53.134;18.006;2023-04-06T16:22:56;8.70;;;4.20;;
77085;SDS011;66014;53.134;18.006;2023-04-06T16:25:22;8.90;;;4.40;;
77085;SDS011;66014;53.134;18.006;2023-04-06T16:27:48;10.80;;;4.40;;
77085;SDS011;66014;53.134;18.006;2023-04-06T16:30:13;9.00;;;4.20;;
77085;SDS011;66014;53.134;18.006;2023-04-06T16:32:55;8.60;;;3.90;;
77085;SDS011;66014;53.134;18.006;2023-04-06T16:35:48;12.30;;;4.60;;
77085;SDS011;66014;53.134;18.006;2023-04-06T16:38:14;10.20;;;4.00;;
77085;SDS011;66014;53.134;18.006;2023-04-06T16:41:10;14.20;;;6.80;;
77085;SDS011;66014;53.134;18.006;2023-04-06T16:47:38;9.70;;;3.70;;
77085;SDS011;66014;53.134;18.006;2023-04-06T16:50:10;12.10;;;4.00;;
77085;SDS011;66014;53.134;18.006;2023-04-06T17:00:44;8.60;;;4.20;;
77085;SDS011;66014;53.134;18.006;2023-04-06T17:35:00;7.80;;;3.40;;
77085;SDS011;66014;53.134;18.006;2023-04-06T17:48:51;8.20;;;3.90;;
77085;SDS011;66014;53.134;18.006;2023-04-06T17:55:32;7.40;;;3.40;;
77085;SDS011;66014;53.134;18.006;2023-04-06T18:38:32;5.60;;;2.90;;
77085;SDS011;66014;53.134;18.006;2023-04-06T18:40:58;5.40;;;2.40;;
77085;SDS011;66014;53.134;18.006;2023-04-06T18:47:05;45.70;;;21.00;;
77085;SDS011;66014;53.134;18.006;2023-04-06T18:52:59;6.90;;;3.70;;
77085;SDS011;66014;53.134;18.006;2023-04-06T18:59:26;5.20;;;3.30;;
77085;SDS011;66014;53.134;18.006;2023-04-06T19:32:51;4.70;;;2.80;;
77085;SDS011;66014;53.134;18.006;2023-04-06T19:35:17;7.90;;;3.50;;
77085;SDS011;66014;53.134;18.006;2023-04-06T19:37:44;7.10;;;3.70;;
77085;SDS011;66014;53.134;18.006;2023-04-06T19:40:10;5.70;;;3.00;;
77085;SDS011;66014;53.134;18.006;2023-04-06T19:42:36;6.00;;;2.80;;
77085;SDS011;66014;53.134;18.006;2023-04-06T19:45:06;6.30;;;3.90;;
77085;SDS011;66014;53.134;18.006;2023-04-06T19:47:34;5.50;;;3.00;;
77085;SDS011;66014;53.134;18.006;2023-04-06T19:50:01;5.30;;;3.20;;
77085;SDS011;66014;53.134;18.006;2023-04-06T19:52:28;6.80;;;3.00;;
77085;SDS011;66014;53.134;18.006;2023-04-06T19:54:54;5.60;;;2.90;;
77085;SDS011;66014;53.134;18.006;2023-04-06T19:57:20;7.50;;;3.40;;
77085;SDS011;66014;53.134;18.006;2023-04-06T19:59:47;9.00;;;4.10;;
77085;SDS011;66014;53.134;18.006;2023-04-06T20:02:14;8.60;;;4.50;;
77085;SDS011;66014;53.134;18.006;2023-04-06T20:04:40;7.50;;;3.70;;
77085;SDS011;66014;53.134;18.006;2023-04-06T20:07:07;8.60;;;3.80;;
77085;SDS011;66014;53.134;18.006;2023-04-06T20:09:37;7.70;;;4.20;;
77085;SDS011;66014;53.134;18.006;2023-04-06T20:12:05;8.00;;;3.60;;
77085;SDS011;66014;53.134;18.006;2023-04-06T20:14:31;8.00;;;4.20;;
77085;SDS011;66014;53.134;18.006;2023-04-06T20:16:58;9.90;;;4.70;;
77085;SDS011;66014;53.134;18.006;2023-04-06T20:19:24;8.10;;;4.20;;
77085;SDS011;66014;53.134;18.006;2023-04-06T20:21:50;6.40;;;3.50;;
77085;SDS011;66014;53.134;18.006;2023-04-06T20:24:17;8.70;;;4.50;;
77085;SDS011;66014;53.134;18.006;2023-04-06T20:26:44;11.40;;;5.10;;
77085;SDS011;66014;53.134;18.006;2023-04-06T20:29:10;10.30;;;4.90;;
77085;SDS011;66014;53.134;18.006;2023-04-06T20:31:36;12.20;;;5.90;;
77085;SDS011;66014;53.134;18.006;2023-04-06T20:34:02;8.70;;;4.10;;
77085;SDS011;66014;53.134;18.006;2023-04-06T20:36:30;10.00;;;5.30;;
77085;SDS011;66014;53.134;18.006;2023-04-06T20:39:01;10.50;;;5.40;;
77085;SDS011;66014;53.134;18.006;2023-04-06T20:41:27;9.10;;;5.50;;
77085;SDS011;66014;53.134;18.006;2023-04-06T20:43:53;10.30;;;5.20;;
77085;SDS011;66014;53.134;18.006;2023-04-06T20:46:19;7.00;;;4.60;;
77085;SDS011;66014;53.134;18.006;2023-04-06T20:48:46;10.20;;;4.70;;
77085;SDS011;66014;53.134;18.006;2023-04-06T20:51:17;12.10;;;5.00;;
77085;SDS011;66014;53.134;18.006;2023-04-06T20:53:48;10.30;;;4.80;;
77085;SDS011;66014;53.134;18.006;2023-04-06T20:56:17;13.80;;;7.80;;
77085;SDS011;66014;53.134;18.006;2023-04-06T20:58:46;12.50;;;5.50;;
77085;SDS011;66014;53.134;18.006;2023-04-06T21:01:13;10.40;;;5.20;;
77085;SDS011;66014;53.134;18.006;2023-04-06T21:03:40;12.30;;;5.80;;
77085;SDS011;66014;53.134;18.006;2023-04-06T21:06:07;12.80;;;6.00;;
77085;SDS011;66014;53.134;18.006;2023-04-06T21:08:33;11.60;;;5.90;;
77085;SDS011;66014;53.134;18.006;2023-04-06T21:11:02;12.20;;;6.10;;
77085;SDS011;66014;53.134;18.006;2023-04-06T21:13:28;16.90;;;6.00;;
77085;SDS011;66014;53.134;18.006;2023-04-06T21:15:54;12.50;;;5.90;;
77085;SDS011;66014;53.134;18.006;2023-04-06T21:18:21;12.20;;;6.30;;
77085;SDS011;66014;53.134;18.006;2023-04-06T21:20:47;12.90;;;6.30;;
77085;SDS011;66014;53.134;18.006;2023-04-06T21:23:13;14.80;;;6.90;;
77085;SDS011;66014;53.134;18.006;2023-04-06T21:25:40;11.60;;;6.00;;
77085;SDS011;66014;53.134;18.006;2023-04-06T21:28:05;11.90;;;5.60;;
77085;SDS011;66014;53.134;18.006;2023-04-06T21:30:31;12.40;;;5.50;;
77085;SDS011;66014;53.134;18.006;2023-04-06T21:33:05;13.70;;;6.30;;
77085;SDS011;66014;53.134;18.006;2023-04-06T21:35:32;8.80;;;4.60;;
77085;SDS011;66014;53.134;18.006;2023-04-06T21:37:58;10.50;;;5.00;;
77085;SDS011;66014;53.134;18.006;2023-04-06T21:40:24;9.30;;;5.00;;
77085;SDS011;66014;53.134;18.006;2023-04-06T21:42:51;9.70;;;5.40;;
77085;SDS011;66014;53.134;18.006;2023-04-06T21:45:17;10.20;;;5.60;;
77085;SDS011;66014;53.134;18.006;2023-04-06T21:47:43;10.50;;;5.50;;
77085;SDS011;66014;53.134;18.006;2023-04-06T21:50:11;10.20;;;5.50;;
77085;SDS011;66014;53.134;18.006;2023-04-06T21:52:36;12.30;;;5.60;;
77085;SDS011;66014;53.134;18.006;2023-04-06T21:55:03;11.90;;;5.40;;
77085;SDS011;66014;53.134;18.006;2023-04-06T21:57:29;11.40;;;5.70;;
77085;SDS011;66014;53.134;18.006;2023-04-06T21:59:55;11.40;;;5.70;;
77085;SDS011;66014;53.134;18.006;2023-04-06T22:02:21;11.30;;;5.20;;
77085;SDS011;66014;53.134;18.006;2023-04-06T22:04:47;12.00;;;5.60;;
77085;SDS011;66014;53.134;18.006;2023-04-06T22:07:14;10.60;;;5.40;;
77085;SDS011;66014;53.134;18.006;2023-04-06T22:09:42;11.00;;;5.70;;
77085;SDS011;66014;53.134;18.006;2023-04-06T22:12:14;13.30;;;6.40;;
77085;SDS011;66014;53.134;18.006;2023-04-06T22:14:43;9.40;;;5.20;;
77085;SDS011;66014;53.134;18.006;2023-04-06T22:17:09;11.70;;;5.70;;
77085;SDS011;66014;53.134;18.006;2023-04-06T22:19:36;11.20;;;5.20;;
77085;SDS011;66014;53.134;18.006;2023-04-06T22:22:03;14.30;;;7.00;;
77085;SDS011;66014;53.134;18.006;2023-04-06T22:24:29;12.20;;;6.60;;
77085;SDS011;66014;53.134;18.006;2023-04-06T22:26:58;11.40;;;5.70;;
77085;SDS011;66014;53.134;18.006;2023-04-06T22:29:24;13.40;;;6.10;;
77085;SDS011;66014;53.134;18.006;2023-04-06T22:31:49;10.00;;;5.90;;
77085;SDS011;66014;53.134;18.006;2023-04-06T22:34:15;10.80;;;5.40;;
77085;SDS011;66014;53.134;18.006;2023-04-06T22:36:43;12.10;;;5.40;;
77085;SDS011;66014;53.134;18.006;2023-04-06T22:39:08;12.70;;;5.50;;
77085;SDS011;66014;53.134;18.006;2023-04-06T22:41:35;12.60;;;6.30;;
77085;SDS011;66014;53.134;18.006;2023-04-06T22:44:02;11.60;;;6.30;;
77085;SDS011;66014;53.134;18.006;2023-04-06T22:46:28;13.10;;;5.80;;
77085;SDS011;66014;53.134;18.006;2023-04-06T22:48:54;13.90;;;6.40;;
77085;SDS011;66014;53.134;18.006;2023-04-06T22:51:20;11.50;;;5.60;;
77085;SDS011;66014;53.134;18.006;2023-04-06T22:53:47;10.70;;;5.80;;
77085;SDS011;66014;53.134;18.006;2023-04-06T22:56:16;12.00;;;5.20;;
77085;SDS011;66014;53.134;18.006;2023-04-06T22:58:42;10.10;;;5.30;;
77085;SDS011;66014;53.134;18.006;2023-04-06T23:01:09;9.90;;;5.30;;